Time;durP1;ratioP1;P1;durP2;ratioP2;P2;SDS_P1;SDS_P2;PMS_P1;PMS_P2;Temp;Humidity;BMP_temperature;BMP_pressure;BME280_temperature;BME280_humidity;BME280_pressure;Samples;Min_cycle;Max_cycle;Signal;HPM_P1;HPM_P2
2023/09/21 17:52:52;;;;;;;0.20;0.20;;;;;;;21.88;100.00;99012.25;4965282;28;20050;-93
2023/09/21 17:55:49;;;;;;;0.03;0.03;;;;;;;21.83;100.00;99017.47;4932473;28;20069;-94
2023/09/21 17:58:43;;;;;;;0.30;0.30;;;;;;;21.71;100.00;99015.34;4950206;28;20069;-93
2023/09/21 18:02:39;;;;;;;0.57;0.57;;;;;;;21.37;100.00;98993.31;4943721;28;20673;-94
2023/09/21 18:05:44;;;;;;;0.55;0.55;;;;;;;21.35;100.00;98995.16;4948147;28;20051;-93
2023/09/21 18:08:26;;;;;;;;;;;;;;;;;;;;;
2023/09/21 18:11:24;;;;;;;0.47;0.47;;;;;;;21.13;100.00;99018.03;4959978;28;20118;-94
2023/09/21 18:14:16;;;;;;;6.97;0.57;;;;;;;21.13;100.00;99032.13;4959023;28;20050;-93
2023/09/21 18:17:01;;;;;;;1.73;1.20;;;;;;;20.94;100.00;99012.38;4976285;28;20047;-96
2023/09/21 18:19:39;;;;;;;0.20;0.20;;;;;;;21.07;100.00;99040.63;4952498;28;20070;-95
2023/09/21 18:23:03;;;;;;;0.43;0.38;;;;;;;20.78;100.00;99025.38;4962596;28;20047;-96
2023/09/21 18:29:45;;;;;;;0.63;0.63;;;;;;;20.86;100.00;99045.28;4932297;29;20299;-94
2023/09/21 18:35:39;;;;;;;0.55;0.32;;;;;;;20.71;100.00;99053.38;4950239;28;20268;-95
2023/09/21 18:41:43;;;;;;;1.98;1.23;;;;;;;20.40;100.00;99035.03;4917862;29;20541;-94
2023/09/21 18:44:14;;;;;;;0.25;0.25;;;;;;;20.55;100.00;99062.78;4895543;29;20040;-96
2023/09/21 18:47:29;;;;;;;;;;;;;;;;;;;;;
2023/09/21 18:50:30;;;;;;;0.30;0.30;;;;;;;20.58;100.00;99076.59;4932492;29;20058;-95
2023/09/21 19:12:40;;;;;;;1.35;0.90;;;;;;;20.10;100.00;99094.19;964291;23;20329;-92
2023/09/21 19:15:07;;;;;;;1.30;0.52;;;;;;;20.09;100.00;99098.31;4925068;28;20043;-91
2023/09/21 19:17:37;;;;;;;1.15;0.73;;;;;;;19.75;100.00;99058.41;4930300;28;20622;-92
2023/09/21 19:20:04;;;;;;;0.35;0.30;;;;;;;19.92;100.00;99083.59;4914189;28;20453;-91
2023/09/21 19:22:31;;;;;;;1.15;1.08;;;;;;;19.91;100.00;99091.28;4935385;28;20656;-91
2023/09/21 19:24:57;;;;;;;4.05;1.75;;;;;;;19.79;100.00;99058.88;4930153;28;20043;-92
2023/09/21 19:27:27;;;;;;;0.50;0.50;;;;;;;19.78;100.00;99087.53;4934986;29;20516;-93
2023/09/21 19:29:53;;;;;;;0.77;0.77;;;;;;;19.51;100.00;99084.41;4935552;28;20109;-91
2023/09/21 19:32:20;;;;;;;0.40;0.40;;;;;;;19.44;100.00;99087.78;4899449;28;20495;-91
2023/09/21 19:34:46;;;;;;;0.50;0.50;;;;;;;19.12;100.00;99063.41;4931521;28;20047;-94
2023/09/21 19:37:16;;;;;;;0.30;0.30;;;;;;;19.06;100.00;99055.75;4931813;28;21222;-90
2023/09/21 19:39:43;;;;;;;3.03;1.95;;;;;;;19.28;100.00;99091.44;4946454;28;20035;-90
2023/09/21 19:42:09;;;;;;;0.47;0.47;;;;;;;19.29;100.00;99090.13;4931063;28;20565;-91
2023/09/21 19:44:35;;;;;;;0.20;0.20;;;;;;;19.25;100.00;99086.06;4925012;28;20579;-92
2023/09/21 19:47:02;;;;;;;0.52;0.52;;;;;;;19.20;100.00;99076.38;4944956;28;20053;-90
2023/09/21 19:49:28;;;;;;;0.98;0.88;;;;;;;19.03;100.00;99056.78;4914244;28;20684;-92
2023/09/21 19:51:55;;;;;;;4.57;0.52;;;;;;;19.12;100.00;99069.03;4933335;28;20303;-91
2023/09/21 19:54:23;;;;;;;0.17;0.17;;;;;;;19.15;100.00;99076.41;4929822;28;20047;-91
2023/09/21 19:56:51;;;;;;;9.57;1.55;;;;;;;19.18;100.00;99062.06;4950317;28;20054;-91
2023/09/21 19:59:19;;;;;;;1.17;1.08;;;;;;;19.15;100.00;99068.75;4932593;28;20047;-91
2023/09/21 20:01:46;;;;;;;0.20;0.20;;;;;;;18.90;100.00;99056.59;4930054;28;20043;-91
2023/09/21 20:04:12;;;;;;;0.88;0.85;;;;;;;18.91;100.00;99049.69;4960718;28;20170;-91
2023/09/21 20:06:38;;;;;;;2.28;0.75;;;;;;;18.81;100.00;99053.31;4957484;28;20507;-90
2023/09/21 20:09:07;;;;;;;0.47;0.40;;;;;;;18.73;100.00;99061.50;4948013;29;20036;-91
2023/09/21 20:11:34;;;;;;;2.35;1.30;;;;;;;18.59;100.00;99051.34;4972355;28;20096;-92
2023/09/21 20:14:00;;;;;;;2.10;0.77;;;;;;;18.62;100.00;99062.31;4966785;28;20075;-89
2023/09/21 20:16:26;;;;;;;0.73;0.73;;;;;;;18.60;100.00;99059.25;4956704;28;20047;-89
2023/09/21 20:18:53;;;;;;;0.30;0.30;;;;;;;18.49;100.00;99050.06;4932458;28;20066;-91
2023/09/21 20:21:19;;;;;;;0.63;0.63;;;;;;;18.44;100.00;99048.81;4942247;28;20042;-90
2023/09/21 20:23:45;;;;;;;0.80;0.63;;;;;;;18.40;100.00;99051.09;4957524;28;20050;-90
2023/09/21 20:26:11;;;;;;;0.88;0.52;;;;;;;18.30;100.00;99041.44;4954386;28;20051;-93
2023/09/21 20:28:37;;;;;;;0.30;0.30;;;;;;;18.25;100.00;99061.88;4921133;28;20127;-92
2023/09/21 20:31:03;;;;;;;0.65;0.38;;;;;;;18.15;100.00;99055.00;4935420;28;20027;-91
2023/09/21 20:33:29;;;;;;;0.13;0.13;;;;;;;18.08;100.00;99041.47;4931083;28;20039;-92
2023/09/21 20:35:55;;;;;;;2.00;1.30;;;;;;;18.04;100.00;99049.38;4953708;28;20045;-91
2023/09/21 20:38:21;;;;;;;0.25;0.25;;;;;;;18.06;100.00;99056.03;4971116;28;20082;-92
2023/09/21 20:40:47;;;;;;;0.10;0.10;;;;;;;17.95;100.00;99046.88;4920759;28;20407;-92
2023/09/21 20:43:13;;;;;;;0.32;0.32;;;;;;;17.76;100.00;99049.41;4947979;28;20039;-91
2023/09/21 20:45:39;;;;;;;0.20;0.20;;;;;;;17.83;100.00;99059.38;4926268;29;20061;-92
2023/09/21 20:48:05;;;;;;;0.45;0.45;;;;;;;17.53;100.00;99026.19;4934697;29;20484;-92
2023/09/21 20:50:32;;;;;;;3.63;1.15;;;;;;;17.81;100.00;99068.28;4929921;28;20133;-91
2023/09/21 20:52:58;;;;;;;0.32;0.32;;;;;;;17.86;100.00;99069.56;4948462;28;20059;-92
2023/09/21 20:55:23;;;;;;;0.30;0.30;;;;;;;17.75;100.00;99041.53;4954515;28;20075;-91
2023/09/21 20:57:49;;;;;;;0.47;0.47;;;;;;;17.86;100.00;99061.16;4935292;28;20550;-93
2023/09/21 21:00:15;;;;;;;0.10;0.10;;;;;;;17.78;100.00;99051.72;4934260;28;20050;-91
2023/09/21 21:02:41;;;;;;;0.52;0.30;;;;;;;17.76;100.00;99055.00;4950761;28;20130;-92
2023/09/21 21:05:07;;;;;;;0.47;0.40;;;;;;;17.67;100.00;99058.09;4955923;28;20226;-92
2023/09/21 21:07:34;;;;;;;0.32;0.32;;;;;;;17.38;100.00;99020.06;4962107;28;20194;-92
2023/09/21 21:10:06;;;;;;;0.43;0.40;;;;;;;17.41;100.00;99027.44;4947943;28;20534;-92
2023/09/21 21:12:33;;;;;;;4.40;0.65;;;;;;;17.47;100.00;99045.03;4933099;28;20058;-92
2023/09/21 21:14:58;;;;;;;0.32;0.22;;;;;;;17.25;100.00;99019.78;4925877;28;20130;-91
2023/09/21 21:17:24;;;;;;;0.77;0.77;;;;;;;17.37;100.00;99045.78;4940593;28;21315;-91
2023/09/21 21:19:50;;;;;;;0.10;0.10;;;;;;;17.31;100.00;99034.56;4941527;28;20420;-92
2023/09/21 21:22:17;;;;;;;0.38;0.30;;;;;;;17.31;100.00;99014.94;4921049;28;20087;-91
2023/09/21 21:24:44;;;;;;;0.75;0.60;;;;;;;17.22;100.00;99018.00;4932948;28;20051;-91
2023/09/21 21:27:12;;;;;;;0.60;0.50;;;;;;;17.34;100.00;99041.97;4935734;28;20033;-91
2023/09/21 21:29:38;;;;;;;0.10;0.10;;;;;;;17.31;100.00;99036.63;4932742;29;20040;-92
2023/09/21 21:32:03;;;;;;;3.63;1.23;;;;;;;17.33;100.00;99046.03;4937071;29;20448;-91
2023/09/21 21:34:29;;;;;;;0.40;0.40;;;;;;;17.08;100.00;99007.75;4945021;29;20471;-91
2023/09/21 21:36:56;;;;;;;0.10;0.10;;;;;;;17.15;100.00;99024.06;4942180;29;20321;-91
2023/09/21 21:39:22;;;;;;;0.45;0.45;;;;;;;17.03;100.00;99012.06;4918525;28;20525;-91
2023/09/21 21:41:47;;;;;;;0.60;0.60;;;;;;;17.05;100.00;99025.59;4926569;29;20036;-92
2023/09/21 21:44:13;;;;;;;0.05;0.05;;;;;;;17.12;100.00;99030.69;4944771;28;20039;-91
2023/09/21 21:46:39;;;;;;;0.30;0.22;;;;;;;17.06;100.00;99021.53;4961639;28;20046;-91
2023/09/21 21:49:05;;;;;;;0.15;0.15;;;;;;;17.03;100.00;99022.50;4959211;28;20049;-91
2023/09/21 21:51:31;;;;;;;0.20;0.20;;;;;;;16.96;100.00;99011.81;4951794;28;20048;-93
2023/09/21 21:53:56;;;;;;;0.93;0.73;;;;;;;16.83;100.00;98980.69;4947032;28;20047;-91
2023/09/21 21:56:22;;;;;;;0.40;0.40;;;;;;;17.11;100.00;99034.75;4946805;28;20054;-92
2023/09/21 21:58:55;;;;;;;1.17;0.40;;;;;;;16.95;100.00;98999.84;4955956;28;20164;-92
2023/09/21 22:01:20;;;;;;;0.20;0.20;;;;;;;17.06;100.00;99005.50;4918977;28;20062;-92
2023/09/21 22:03:46;;;;;;;0.50;0.50;;;;;;;17.16;100.00;99014.41;4936900;28;20483;-92
2023/09/21 22:06:14;;;;;;;1.95;1.13;;;;;;;17.11;100.00;99006.75;4929233;29;20442;-92
2023/09/21 22:08:40;;;;;;;0.25;0.25;;;;;;;17.18;100.00;99011.88;4946550;29;20043;-92
2023/09/21 22:11:21;;;;;;;0.98;0.88;;;;;;;17.12;100.00;99013.88;4973825;28;20089;-92
2023/09/21 22:13:56;;;;;;;0.30;0.30;;;;;;;17.08;100.00;99008.53;4938859;29;20051;-92
2023/09/21 22:16:22;;;;;;;1.15;0.80;;;;;;;17.04;100.00;99001.63;4938916;28;20514;-91
2023/09/21 22:18:47;;;;;;;0.52;0.52;;;;;;;16.98;100.00;98998.06;4946120;28;20057;-92
2023/09/21 22:21:15;;;;;;;0.20;0.20;;;;;;;17.05;100.00;99008.78;4935600;28;20047;-91
2023/09/21 22:23:41;;;;;;;2.55;1.25;;;;;;;17.01;100.00;99002.66;4927233;28;20187;-92
2023/09/21 22:26:10;;;;;;;0.80;0.80;;;;;;;17.01;100.00;98997.81;4952591;28;20578;-91
2023/09/21 22:28:36;;;;;;;1.35;0.90;;;;;;;17.02;100.00;98993.75;4940557;28;20034;-92
2023/09/21 22:31:02;;;;;;;0.35;0.30;;;;;;;16.87;100.00;98987.59;4936303;29;20035;-91
2023/09/21 22:33:28;;;;;;;0.30;0.20;;;;;;;17.00;100.00;98995.53;4944380;28;20498;-92
2023/09/21 22:35:55;;;;;;;0.10;0.10;;;;;;;16.95;100.00;98983.03;4940379;28;20507;-92
2023/09/21 22:38:22;;;;;;;0.10;0.10;;;;;;;16.91;100.00;98976.13;4946219;28;20046;-92
2023/09/21 22:40:54;;;;;;;0.30;0.30;;;;;;;16.90;100.00;98985.84;4924431;29;20043;-92
2023/09/21 22:43:20;;;;;;;0.55;0.55;;;;;;;16.75;100.00;98961.59;4961914;28;20054;-91
2023/09/21 22:45:45;;;;;;;0.17;0.17;;;;;;;16.75;100.00;98972.78;4938944;28;20356;-91
2023/09/21 22:48:11;;;;;;;0.00;0.00;;;;;;;16.77;100.00;98983.50;4946493;28;20045;-92
2023/09/21 22:50:36;;;;;;;0.57;0.52;;;;;;;16.67;100.00;98971.75;4919885;29;20531;-92
2023/09/21 22:53:02;;;;;;;0.30;0.30;;;;;;;16.62;100.00;98954.97;4953501;29;20059;-92
2023/09/21 22:55:29;;;;;;;0.80;0.68;;;;;;;16.70;100.00;98979.13;4937139;28;20039;-91
2023/09/21 22:57:54;;;;;;;0.52;0.52;;;;;;;16.68;100.00;98980.91;4951586;28;20036;-92
2023/09/21 23:00:22;;;;;;;0.95;0.75;;;;;;;16.76;100.00;98979.16;4955486;28;20074;-93
2023/09/21 23:02:48;;;;;;;0.60;0.60;;;;;;;16.77;100.00;98975.88;4954941;28;20034;-91
2023/09/21 23:05:14;;;;;;;0.40;0.20;;;;;;;16.67;100.00;98957.75;4951881;28;20054;-92
2023/09/21 23:07:42;;;;;;;0.05;0.05;;;;;;;16.80;100.00;98971.28;4943707;29;20039;-91
2023/09/21 23:10:11;;;;;;;0.00;0.00;;;;;;;16.76;100.00;98965.16;4937938;28;20545;-91
2023/09/21 23:12:41;;;;;;;0.63;0.45;;;;;;;16.61;100.00;98936.63;4936600;28;20167;-92
2023/09/21 23:15:11;;;;;;;1.80;1.33;;;;;;;16.79;100.00;98966.94;4933442;28;20077;-91
2023/09/21 23:17:40;;;;;;;1.15;0.70;;;;;;;16.83;100.00;98963.91;4968879;28;20047;-91
2023/09/21 23:20:17;;;;;;;0.10;0.10;;;;;;;16.76;100.00;98960.34;4934998;29;20511;-91
2023/09/21 23:22:47;;;;;;;2.92;1.00;;;;;;;16.86;100.00;98979.72;4946650;28;20491;-92
2023/09/21 23:25:23;;;;;;;0.30;0.30;;;;;;;16.85;100.00;98976.13;4948923;28;20046;-93
2023/09/21 23:27:48;;;;;;;0.52;0.52;;;;;;;16.76;100.00;98960.34;4951419;29;20043;-92
2023/09/21 23:30:16;;;;;;;0.52;0.52;;;;;;;16.83;100.00;98963.91;4945033;28;20538;-93
2023/09/21 23:32:42;;;;;;;0.17;0.17;;;;;;;16.83;100.00;98969.50;4960886;28;20451;-92
2023/09/21 23:35:08;;;;;;;0.30;0.30;;;;;;;16.78;100.00;98968.97;4944718;29;20066;-92
2023/09/21 23:37:36;;;;;;;0.20;0.20;;;;;;;16.80;100.00;98965.69;4932056;29;20051;-90
2023/09/21 23:40:02;;;;;;;0.10;0.10;;;;;;;16.73;100.00;98938.94;4964849;28;20043;-92
2023/09/21 23:42:28;;;;;;;0.57;0.52;;;;;;;16.70;100.00;98944.78;4950245;28;20077;-91
2023/09/21 23:44:53;;;;;;;0.25;0.25;;;;;;;16.82;100.00;98968.00;4947604;28;20110;-91
2023/09/21 23:47:19;;;;;;;1.00;0.85;;;;;;;16.83;100.00;98966.69;4919693;29;20475;-91
2023/09/21 23:49:45;;;;;;;0.57;0.40;;;;;;;16.79;100.00;98972.53;4926103;29;20066;-92
2023/09/21 23:52:12;;;;;;;0.10;0.10;;;;;;;16.75;100.00;98964.41;4934683;29;20043;-91
2023/09/21 23:54:38;;;;;;;0.40;0.40;;;;;;;16.67;100.00;98962.59;4940259;28;20093;-92
2023/09/21 23:57:05;;;;;;;0.22;0.22;;;;;;;16.62;100.00;98961.28;4937562;28;20043;-91
2023/09/21 23:59:34;;;;;;;0.05;0.05;;;;;;;16.54;100.00;98954.63;4935770;29;20043;-92
